New Braunfels, TX (78132)

05:15 AM CDT die 24o October, anno 2014 (GMT -0500)
Oakwood Estates | Change Station
CLOSE
Current Station
Personal Weather Stations
Location: New Braunfels, TX
Elevation: 758 ft
Nearby Weather Stations

Elev 758 ft 29.72 °N, 98.14 °W | Updated 8 seconds ago

Serena
Serena
60.8 °F
Feels Like 60.8 °F
N
0.0
Ventus Variabilis Ventus from Magis Eurus quam Auster
Gusts 1.0 mph

Hodie
High -- | Low -- °F
--% Chance of Precip.
Yesterday
High -- | Low -- °F
Precip. -- in
7:40 AM 6:52 PM
New, 0% visible
Pressio 30.09 in
Visibilitas 10.0 milia passuum
Clouds Serena
Frigus in quo Ros apparet 58 °F
Umor 89%
Rainfall 0.00 in
Snow Depth Not available.
UV 0 out of 12
Pollen 5.70 out of 12
Ozone Good
PM2.5 Moderate
Flu Activity Sporadic
METAR KBAZ 240951Z AUTO 32003KT 10SM CLR 16/14 A3011 RMK AO2 SLP189 T01560139

More Conditions Fewer Conditions

Pressio 30.09 in
Visibilitas 10.0 milia passuum
Clouds Serena
Frigus in quo Ros apparet 58 °F
Umor 89%
Rainfall 0.00 in
Snow Depth Not available.
UV 0 out of 12
Pollen 5.70 out of 12
Ozone Good
PM2.5 Moderate
Flu Activity Sporadic
METAR KBAZ 240951Z AUTO 32003KT 10SM CLR 16/14 A3011 RMK AO2 SLP189 T01560139

More Conditions Fewer Conditions

10-Day Weather Forecast

Almanac

Astronomy

Oct. 24, 2014 Rise Set
Actual Time 7:40 AM CDT 6:52 PM CDT
Civil Twilight 7:15 AM CDT 7:17 PM CDT
Nautical Twilight 6:47 AM CDT 7:44 PM CDT
Astronomical Twilight 6:20 AM CDT 8:12 PM CDT
Moon 8:18 AM CDT 7:37 PM CDT
Length Of Visible Light 12h 01m
Length of Day
11h 12m
Tomorrow will be 1m 38s shorter.
New, 0% of the Moon is Illuminated
Hodie
New
Oct 30
First Quarter
Nov 6
Full
Nov 14
Last Quarter
Nov 22
New

Today's Extremes

State Highs State Lows

Community

WunderPhotos

Upload Photos

1,764,513 photos uploaded!

WunderBlogs® & News

Nearby

Air Quality

  Air Quality AQ Index Pollutant
Yesterday Unhealthy for Sensitive Groups
OZONE
Yesterday Moderate
PM2.5
Current Moderate
PM2.5
Current Good
OZONE
Die Veneris Moderate
OZONE
Die Veneris Good
PM10
Die Saturni Moderate
OZONE
Die Saturni Good
PM10
Die Solis Moderate
OZONE
Die Solis Good
PM10

Snow Depth

Station Depth Elevation
No new snow has been reported.

Earthquake Activity

City Distance Mag. Time & Date
No recent earthquake activity has been reported nearby.
Minimum magnitude displayed is 2.5.

Coastal Water Temperatures

Locus Calor
No Stations Reporting

Nearby Weather Stations